sensor_id;sensor_type;location;lat;lon;timestamp;pressure;altitude;pressure_sealevel;temperature;humidity
56689;BME280;42565;53.342;-1.534;2022-08-30T00:01:04;100024.86;;;18.11;45.38
56689;BME280;42565;53.342;-1.534;2022-08-30T00:03:34;100025.17;;;17.52;45.55
56689;BME280;42565;53.342;-1.534;2022-08-30T00:06:02;100027.21;;;17.81;45.68
56689;BME280;42565;53.342;-1.534;2022-08-30T00:08:29;100028.86;;;17.87;45.22
56689;BME280;42565;53.342;-1.534;2022-08-30T00:10:56;100030.92;;;18.15;44.96
56689;BME280;42565;53.342;-1.534;2022-08-30T00:13:24;100030.71;;;17.96;44.39
56689;BME280;42565;53.342;-1.534;2022-08-30T00:15:52;100028.35;;;18.47;44.19
56689;BME280;42565;53.342;-1.534;2022-08-30T00:18:19;100030.07;;;17.58;44.56
56689;BME280;42565;53.342;-1.534;2022-08-30T00:20:48;100028.82;;;17.74;44.88
56689;BME280;42565;53.342;-1.534;2022-08-30T00:23:15;100028.94;;;17.65;44.98
56689;BME280;42565;53.342;-1.534;2022-08-30T00:25:44;100030.31;;;18.13;44.40
56689;BME280;42565;53.342;-1.534;2022-08-30T00:28:12;100029.24;;;17.38;44.28
56689;BME280;42565;53.342;-1.534;2022-08-30T00:30:40;100027.43;;;17.74;44.70
56689;BME280;42565;53.342;-1.534;2022-08-30T00:33:09;100023.00;;;17.31;44.50
56689;BME280;42565;53.342;-1.534;2022-08-30T00:35:36;100024.98;;;17.64;44.60
56689;BME280;42565;53.342;-1.534;2022-08-30T00:38:04;100021.69;;;18.09;44.44
56689;BME280;42565;53.342;-1.534;2022-08-30T00:40:33;100022.68;;;17.95;44.20
56689;BME280;42565;53.342;-1.534;2022-08-30T00:43:01;100024.97;;;17.96;44.18
56689;BME280;42565;53.342;-1.534;2022-08-30T00:45:33;100025.47;;;17.92;44.02
56689;BME280;42565;53.342;-1.534;2022-08-30T00:48:01;100023.96;;;17.86;44.12
56689;BME280;42565;53.342;-1.534;2022-08-30T00:50:33;100024.38;;;17.73;44.42
56689;BME280;42565;53.342;-1.534;2022-08-30T00:53:03;100028.30;;;17.84;44.08
56689;BME280;42565;53.342;-1.534;2022-08-30T00:55:31;100033.29;;;17.77;44.24
56689;BME280;42565;53.342;-1.534;2022-08-30T00:58:01;100034.16;;;17.67;44.59
56689;BME280;42565;53.342;-1.534;2022-08-30T01:00:29;100035.58;;;17.87;44.19
56689;BME280;42565;53.342;-1.534;2022-08-30T01:02:56;100029.74;;;17.79;43.96
56689;BME280;42565;53.342;-1.534;2022-08-30T01:05:23;100030.30;;;17.83;43.80
56689;BME280;42565;53.342;-1.534;2022-08-30T01:07:51;100033.86;;;18.09;43.39
56689;BME280;42565;53.342;-1.534;2022-08-30T01:10:18;100032.30;;;17.25;43.70
56689;BME280;42565;53.342;-1.534;2022-08-30T01:12:46;100033.45;;;17.37;44.33
56689;BME280;42565;53.342;-1.534;2022-08-30T01:15:15;100034.66;;;17.02;43.90
56689;BME280;42565;53.342;-1.534;2022-08-30T01:17:43;100037.52;;;17.70;43.92
56689;BME280;42565;53.342;-1.534;2022-08-30T01:20:16;100033.48;;;17.00;44.31
56689;BME280;42565;53.342;-1.534;2022-08-30T01:22:59;100033.69;;;17.34;44.15
56689;BME280;42565;53.342;-1.534;2022-08-30T01:25:29;100028.94;;;17.75;43.71
56689;BME280;42565;53.342;-1.534;2022-08-30T01:28:00;100032.25;;;17.99;43.47
56689;BME280;42565;53.342;-1.534;2022-08-30T01:30:29;100037.67;;;17.80;43.26
56689;BME280;42565;53.342;-1.534;2022-08-30T01:32:59;100035.63;;;17.78;43.48
56689;BME280;42565;53.342;-1.534;2022-08-30T01:35:32;100027.97;;;17.75;43.26
56689;BME280;42565;53.342;-1.534;2022-08-30T01:38:01;100035.17;;;17.93;43.37
56689;BME280;42565;53.342;-1.534;2022-08-30T01:40:28;100031.55;;;17.69;43.52
56689;BME280;42565;53.342;-1.534;2022-08-30T01:42:55;100028.52;;;17.61;43.77
56689;BME280;42565;53.342;-1.534;2022-08-30T01:45:22;100032.20;;;17.56;43.75
56689;BME280;42565;53.342;-1.534;2022-08-30T01:47:50;100028.48;;;17.77;43.27
56689;BME280;42565;53.342;-1.534;2022-08-30T01:50:16;100027.21;;;17.46;43.70
56689;BME280;42565;53.342;-1.534;2022-08-30T01:52:44;100029.38;;;17.25;44.07
56689;BME280;42565;53.342;-1.534;2022-08-30T01:55:11;100029.70;;;16.77;44.39
56689;BME280;42565;53.342;-1.534;2022-08-30T01:57:38;100032.73;;;17.16;44.12
56689;BME280;42565;53.342;-1.534;2022-08-30T02:00:08;100027.46;;;17.12;44.30
56689;BME280;42565;53.342;-1.534;2022-08-30T02:02:36;100025.25;;;17.52;43.71
56689;BME280;42565;53.342;-1.534;2022-08-30T02:05:04;100023.19;;;17.34;44.10
56689;BME280;42565;53.342;-1.534;2022-08-30T02:07:31;100026.76;;;17.25;43.84
56689;BME280;42565;53.342;-1.534;2022-08-30T02:09:58;100026.03;;;17.54;43.64
56689;BME280;42565;53.342;-1.534;2022-08-30T02:12:25;100021.93;;;16.87;44.10
56689;BME280;42565;53.342;-1.534;2022-08-30T02:14:53;100023.33;;;16.95;44.30
56689;BME280;42565;53.342;-1.534;2022-08-30T02:17:21;100019.56;;;17.14;44.24
56689;BME280;42565;53.342;-1.534;2022-08-30T02:19:48;100020.88;;;16.87;44.09
56689;BME280;42565;53.342;-1.534;2022-08-30T02:22:15;100017.24;;;15.89;44.36
56689;BME280;42565;53.342;-1.534;2022-08-30T02:24:42;100018.94;;;17.04;43.94
56689;BME280;42565;53.342;-1.534;2022-08-30T02:27:09;100020.35;;;16.59;43.47
56689;BME280;42565;53.342;-1.534;2022-08-30T02:29:37;100019.79;;;17.13;43.28
56689;BME280;42565;53.342;-1.534;2022-08-30T02:32:05;100018.80;;;17.10;43.00
56689;BME280;42565;53.342;-1.534;2022-08-30T02:34:32;100015.29;;;16.46;43.69
56689;BME280;42565;53.342;-1.534;2022-08-30T02:36:59;100012.73;;;17.15;43.33
56689;BME280;42565;53.342;-1.534;2022-08-30T02:39:26;100010.31;;;17.06;42.57
56689;BME280;42565;53.342;-1.534;2022-08-30T02:41:53;100007.76;;;16.50;43.32
56689;BME280;42565;53.342;-1.534;2022-08-30T02:44:19;100005.20;;;16.78;43.24
56689;BME280;42565;53.342;-1.534;2022-08-30T02:46:46;100007.79;;;17.03;43.43
56689;BME280;42565;53.342;-1.534;2022-08-30T02:49:13;100009.94;;;16.23;43.93
56689;BME280;42565;53.342;-1.534;2022-08-30T02:51:40;100006.56;;;16.56;43.72
56689;BME280;42565;53.342;-1.534;2022-08-30T02:54:07;100005.55;;;16.61;43.63
56689;BME280;42565;53.342;-1.534;2022-08-30T02:56:34;100008.27;;;16.55;44.10
56689;BME280;42565;53.342;-1.534;2022-08-30T02:59:01;100009.60;;;16.55;44.06
56689;BME280;42565;53.342;-1.534;2022-08-30T03:01:29;100007.52;;;16.45;43.91
56689;BME280;42565;53.342;-1.534;2022-08-30T03:03:55;100008.34;;;16.79;43.81
56689;BME280;42565;53.342;-1.534;2022-08-30T03:06:22;99999.94;;;16.57;43.22
56689;BME280;42565;53.342;-1.534;2022-08-30T03:08:49;100005.29;;;16.53;43.73
56689;BME280;42565;53.342;-1.534;2022-08-30T03:11:16;100003.63;;;15.18;44.52
56689;BME280;42565;53.342;-1.534;2022-08-30T03:13:43;100008.23;;;16.32;44.44
56689;BME280;42565;53.342;-1.534;2022-08-30T03:16:11;100011.79;;;15.82;44.56
56689;BME280;42565;53.342;-1.534;2022-08-30T03:18:38;100010.28;;;16.49;43.95
56689;BME280;42565;53.342;-1.534;2022-08-30T03:21:09;100007.85;;;16.61;44.30
56689;BME280;42565;53.342;-1.534;2022-08-30T03:23:36;100010.60;;;16.86;43.88
56689;BME280;42565;53.342;-1.534;2022-08-30T03:26:04;100015.62;;;16.63;44.38
56689;BME280;42565;53.342;-1.534;2022-08-30T03:28:31;100018.92;;;16.44;44.74
56689;BME280;42565;53.342;-1.534;2022-08-30T03:30:58;100022.43;;;16.59;44.53
56689;BME280;42565;53.342;-1.534;2022-08-30T03:33:25;100017.96;;;16.47;44.52
56689;BME280;42565;53.342;-1.534;2022-08-30T03:35:52;100017.72;;;16.25;45.27
56689;BME280;42565;53.342;-1.534;2022-08-30T03:38:19;100012.25;;;16.22;45.59
56689;BME280;42565;53.342;-1.534;2022-08-30T03:40:46;100004.66;;;16.29;44.89
56689;BME280;42565;53.342;-1.534;2022-08-30T03:43:12;100006.16;;;15.40;45.50
56689;BME280;42565;53.342;-1.534;2022-08-30T03:45:39;100002.42;;;16.15;45.17
56689;BME280;42565;53.342;-1.534;2022-08-30T03:48:06;100009.49;;;16.07;45.11
56689;BME280;42565;53.342;-1.534;2022-08-30T03:50:33;100010.91;;;16.10;45.39
56689;BME280;42565;53.342;-1.534;2022-08-30T03:53:01;100014.59;;;16.11;45.38
56689;BME280;42565;53.342;-1.534;2022-08-30T03:55:28;100012.06;;;16.31;44.83
56689;BME280;42565;53.342;-1.534;2022-08-30T03:57:55;100012.56;;;16.26;45.37
56689;BME280;42565;53.342;-1.534;2022-08-30T04:00:23;100006.20;;;15.83;45.26
56689;BME280;42565;53.342;-1.534;2022-08-30T04:02:50;100005.22;;;16.16;45.58
56689;BME280;42565;53.342;-1.534;2022-08-30T04:05:17;99998.43;;;15.94;45.41
56689;BME280;42565;53.342;-1.534;2022-08-30T04:07:45;99998.93;;;15.59;46.36
56689;BME280;42565;53.342;-1.534;2022-08-30T04:10:12;100000.47;;;16.27;46.14
56689;BME280;42565;53.342;-1.534;2022-08-30T04:12:39;99998.16;;;15.83;46.57
56689;BME280;42565;53.342;-1.534;2022-08-30T04:15:07;100000.57;;;16.04;46.14
56689;BME280;42565;53.342;-1.534;2022-08-30T04:17:35;100008.02;;;16.17;45.57
56689;BME280;42565;53.342;-1.534;2022-08-30T04:20:02;100008.51;;;16.43;45.41
56689;BME280;42565;53.342;-1.534;2022-08-30T04:22:29;100012.63;;;16.46;45.02
56689;BME280;42565;53.342;-1.534;2022-08-30T04:24:56;100013.58;;;16.32;45.15
56689;BME280;42565;53.342;-1.534;2022-08-30T04:27:24;100014.61;;;15.85;45.95
56689;BME280;42565;53.342;-1.534;2022-08-30T04:29:50;100009.65;;;16.26;45.66
56689;BME280;42565;53.342;-1.534;2022-08-30T04:32:17;100008.12;;;15.97;46.72
56689;BME280;42565;53.342;-1.534;2022-08-30T04:34:44;100012.53;;;15.96;46.34
56689;BME280;42565;53.342;-1.534;2022-08-30T04:37:10;100016.13;;;16.43;45.94
56689;BME280;42565;53.342;-1.534;2022-08-30T04:39:37;100016.48;;;16.11;46.12
56689;BME280;42565;53.342;-1.534;2022-08-30T04:42:05;100013.67;;;16.11;46.29
56689;BME280;42565;53.342;-1.534;2022-08-30T04:44:32;100014.48;;;16.83;45.54
56689;BME280;42565;53.342;-1.534;2022-08-30T04:47:00;100017.40;;;16.50;45.57
56689;BME280;42565;53.342;-1.534;2022-08-30T04:49:27;100017.19;;;16.04;46.47
56689;BME280;42565;53.342;-1.534;2022-08-30T04:51:54;100019.34;;;15.99;46.46
56689;BME280;42565;53.342;-1.534;2022-08-30T04:54:21;100018.29;;;16.07;46.39
56689;BME280;42565;53.342;-1.534;2022-08-30T04:56:48;100014.74;;;16.29;45.92
56689;BME280;42565;53.342;-1.534;2022-08-30T04:59:14;100014.27;;;15.87;46.55
56689;BME280;42565;53.342;-1.534;2022-08-30T05:01:41;100012.23;;;15.97;47.06
56689;BME280;42565;53.342;-1.534;2022-08-30T05:04:08;100012.54;;;15.46;46.69
56689;BME280;42565;53.342;-1.534;2022-08-30T05:06:35;100016.31;;;16.26;46.39
56689;BME280;42565;53.342;-1.534;2022-08-30T05:09:02;100015.63;;;16.33;45.94
56689;BME280;42565;53.342;-1.534;2022-08-30T05:11:30;100019.73;;;16.27;45.88
56689;BME280;42565;53.342;-1.534;2022-08-30T05:13:56;100019.21;;;15.98;46.40
56689;BME280;42565;53.342;-1.534;2022-08-30T05:16:24;100022.21;;;16.35;46.29
56689;BME280;42565;53.342;-1.534;2022-08-30T05:18:52;100023.91;;;16.05;46.53
56689;BME280;42565;53.342;-1.534;2022-08-30T05:21:21;100026.16;;;15.82;47.33
56689;BME280;42565;53.342;-1.534;2022-08-30T05:23:49;100029.93;;;16.03;47.04
56689;BME280;42565;53.342;-1.534;2022-08-30T05:26:18;100030.47;;;15.37;47.38
56689;BME280;42565;53.342;-1.534;2022-08-30T05:28:47;100034.86;;;15.78;47.12
56689;BME280;42565;53.342;-1.534;2022-08-30T05:31:17;100036.90;;;14.79;47.72
56689;BME280;42565;53.342;-1.534;2022-08-30T05:33:46;100038.91;;;15.57;47.17
56689;BME280;42565;53.342;-1.534;2022-08-30T05:36:16;100038.45;;;14.82;47.52
56689;BME280;42565;53.342;-1.534;2022-08-30T05:38:44;100045.84;;;15.81;47.70
56689;BME280;42565;53.342;-1.534;2022-08-30T05:41:11;100046.52;;;15.91;47.28
56689;BME280;42565;53.342;-1.534;2022-08-30T05:43:39;100044.49;;;15.76;47.42
56689;BME280;42565;53.342;-1.534;2022-08-30T05:46:09;100044.78;;;15.60;47.90
56689;BME280;42565;53.342;-1.534;2022-08-30T05:48:38;100049.86;;;16.20;47.30
56689;BME280;42565;53.342;-1.534;2022-08-30T05:51:09;100050.69;;;15.72;47.26
56689;BME280;42565;53.342;-1.534;2022-08-30T05:53:38;100049.95;;;16.26;46.55
56689;BME280;42565;53.342;-1.534;2022-08-30T05:56:08;100047.60;;;16.23;46.47
56689;BME280;42565;53.342;-1.534;2022-08-30T05:58:36;100040.54;;;16.23;46.20
56689;BME280;42565;53.342;-1.534;2022-08-30T06:01:04;100043.54;;;15.99;46.46
56689;BME280;42565;53.342;-1.534;2022-08-30T06:03:32;100048.53;;;16.22;46.49
56689;BME280;42565;53.342;-1.534;2022-08-30T06:06:00;100048.63;;;16.16;46.33
56689;BME280;42565;53.342;-1.534;2022-08-30T06:08:27;100050.17;;;16.10;46.08
56689;BME280;42565;53.342;-1.534;2022-08-30T06:10:54;100049.08;;;16.05;46.32
56689;BME280;42565;53.342;-1.534;2022-08-30T06:13:21;100050.75;;;15.82;46.75
56689;BME280;42565;53.342;-1.534;2022-08-30T06:15:48;100045.29;;;16.38;46.00
56689;BME280;42565;53.342;-1.534;2022-08-30T06:18:15;100045.97;;;15.55;46.50
56689;BME280;42565;53.342;-1.534;2022-08-30T06:20:44;100048.20;;;15.89;46.83
56689;BME280;42565;53.342;-1.534;2022-08-30T06:23:11;100048.66;;;15.34;46.99
56689;BME280;42565;53.342;-1.534;2022-08-30T06:25:39;100048.20;;;16.19;46.77
56689;BME280;42565;53.342;-1.534;2022-08-30T06:28:06;100040.44;;;16.08;47.13
56689;BME280;42565;53.342;-1.534;2022-08-30T06:30:34;100041.36;;;15.88;47.32
56689;BME280;42565;53.342;-1.534;2022-08-30T06:33:01;100041.18;;;16.31;47.08
56689;BME280;42565;53.342;-1.534;2022-08-30T06:35:28;100040.13;;;16.29;46.53
56689;BME280;42565;53.342;-1.534;2022-08-30T06:37:55;100040.35;;;16.24;46.70
56689;BME280;42565;53.342;-1.534;2022-08-30T06:40:22;100038.61;;;15.76;46.71
56689;BME280;42565;53.342;-1.534;2022-08-30T06:42:49;100039.04;;;16.16;47.03
56689;BME280;42565;53.342;-1.534;2022-08-30T06:45:15;100040.93;;;15.67;46.85
56689;BME280;42565;53.342;-1.534;2022-08-30T06:47:43;100038.58;;;16.38;46.52
56689;BME280;42565;53.342;-1.534;2022-08-30T06:50:12;100036.59;;;16.32;45.49
56689;BME280;42565;53.342;-1.534;2022-08-30T06:52:40;100040.45;;;16.84;45.67
56689;BME280;42565;53.342;-1.534;2022-08-30T06:55:10;100046.11;;;16.53;45.94
56689;BME280;42565;53.342;-1.534;2022-08-30T06:57:38;100045.34;;;16.92;45.88
56689;BME280;42565;53.342;-1.534;2022-08-30T07:00:08;100043.44;;;17.53;44.80
56689;BME280;42565;53.342;-1.534;2022-08-30T07:02:37;100041.90;;;17.67;43.91
56689;BME280;42565;53.342;-1.534;2022-08-30T07:05:06;100038.71;;;17.64;43.45
56689;BME280;42565;53.342;-1.534;2022-08-30T07:07:34;100046.02;;;17.77;43.66
56689;BME280;42565;53.342;-1.534;2022-08-30T07:10:02;100049.52;;;17.31;43.94
56689;BME280;42565;53.342;-1.534;2022-08-30T07:12:30;100048.37;;;17.09;43.84
56689;BME280;42565;53.342;-1.534;2022-08-30T07:14:57;100051.73;;;17.45;43.18
56689;BME280;42565;53.342;-1.534;2022-08-30T07:17:23;100052.41;;;17.19;42.63
56689;BME280;42565;53.342;-1.534;2022-08-30T07:19:50;100048.21;;;18.13;41.99
56689;BME280;42565;53.342;-1.534;2022-08-30T07:22:17;100046.01;;;18.08;41.97
56689;BME280;42565;53.342;-1.534;2022-08-30T07:24:44;100046.15;;;17.84;41.67
56689;BME280;42565;53.342;-1.534;2022-08-30T07:27:13;100050.91;;;17.61;41.41
56689;BME280;42565;53.342;-1.534;2022-08-30T07:29:41;100047.19;;;17.76;41.75
56689;BME280;42565;53.342;-1.534;2022-08-30T07:32:08;100050.15;;;17.53;41.91
56689;BME280;42565;53.342;-1.534;2022-08-30T07:34:35;100051.11;;;18.51;41.26
56689;BME280;42565;53.342;-1.534;2022-08-30T07:37:02;100051.13;;;18.00;42.24
56689;BME280;42565;53.342;-1.534;2022-08-30T07:39:29;100055.25;;;17.60;42.07
56689;BME280;42565;53.342;-1.534;2022-08-30T07:41:56;100055.12;;;18.67;42.21
56689;BME280;42565;53.342;-1.534;2022-08-30T07:44:22;100053.70;;;18.45;41.50
56689;BME280;42565;53.342;-1.534;2022-08-30T07:46:49;100053.02;;;18.74;41.29
56689;BME280;42565;53.342;-1.534;2022-08-30T07:49:16;100058.07;;;18.16;40.68
56689;BME280;42565;53.342;-1.534;2022-08-30T07:51:43;100065.73;;;19.18;39.77
56689;BME280;42565;53.342;-1.534;2022-08-30T07:54:11;100064.64;;;18.56;40.28
56689;BME280;42565;53.342;-1.534;2022-08-30T07:56:38;100060.71;;;19.56;39.09
56689;BME280;42565;53.342;-1.534;2022-08-30T07:59:06;100059.98;;;19.07;38.90
56689;BME280;42565;53.342;-1.534;2022-08-30T08:01:33;100066.71;;;19.02;38.99
56689;BME280;42565;53.342;-1.534;2022-08-30T08:04:02;100070.88;;;19.16;38.83
56689;BME280;42565;53.342;-1.534;2022-08-30T08:06:29;100070.40;;;18.77;39.04
56689;BME280;42565;53.342;-1.534;2022-08-30T08:08:56;100074.39;;;19.26;37.88
56689;BME280;42565;53.342;-1.534;2022-08-30T08:11:24;100071.44;;;18.72;38.71
56689;BME280;42565;53.342;-1.534;2022-08-30T08:13:53;100071.25;;;18.94;38.36
56689;BME280;42565;53.342;-1.534;2022-08-30T08:16:22;100071.34;;;19.02;37.85
56689;BME280;42565;53.342;-1.534;2022-08-30T08:18:50;100073.71;;;19.76;37.93
56689;BME280;42565;53.342;-1.534;2022-08-30T08:21:18;100076.76;;;19.23;37.79
56689;BME280;42565;53.342;-1.534;2022-08-30T08:23:45;100077.85;;;19.96;38.26
56689;BME280;42565;53.342;-1.534;2022-08-30T08:26:12;100079.87;;;19.46;38.37
56689;BME280;42565;53.342;-1.534;2022-08-30T08:28:40;100084.48;;;20.19;36.45
56689;BME280;42565;53.342;-1.534;2022-08-30T08:31:13;100086.29;;;20.28;37.34
56689;BME280;42565;53.342;-1.534;2022-08-30T08:33:40;100087.04;;;20.07;36.37
56689;BME280;42565;53.342;-1.534;2022-08-30T08:36:07;100085.68;;;20.20;36.90
56689;BME280;42565;53.342;-1.534;2022-08-30T08:38:35;100087.96;;;21.17;35.62
56689;BME280;42565;53.342;-1.534;2022-08-30T08:41:09;100083.77;;;20.99;35.83
56689;BME280;42565;53.342;-1.534;2022-08-30T08:43:38;100081.80;;;20.42;36.83
56689;BME280;42565;53.342;-1.534;2022-08-30T08:46:12;100082.62;;;21.07;35.91
56689;BME280;42565;53.342;-1.534;2022-08-30T08:48:44;100080.17;;;21.50;35.71
56689;BME280;42565;53.342;-1.534;2022-08-30T08:51:14;100076.01;;;20.59;36.25
56689;BME280;42565;53.342;-1.534;2022-08-30T08:53:46;100079.69;;;21.02;35.66
56689;BME280;42565;53.342;-1.534;2022-08-30T08:56:17;100080.72;;;20.13;36.39
56689;BME280;42565;53.342;-1.534;2022-08-30T08:58:47;100079.93;;;20.34;36.54
56689;BME280;42565;53.342;-1.534;2022-08-30T09:01:17;100075.48;;;19.24;37.24
56689;BME280;42565;53.342;-1.534;2022-08-30T09:03:45;100075.23;;;20.64;36.43
56689;BME280;42565;53.342;-1.534;2022-08-30T09:06:29;100073.61;;;20.51;37.37
56689;BME280;42565;53.342;-1.534;2022-08-30T09:08:59;100072.98;;;20.99;36.34
56689;BME280;42565;53.342;-1.534;2022-08-30T09:11:28;100078.23;;;20.91;35.90
56689;BME280;42565;53.342;-1.534;2022-08-30T09:13:56;100079.69;;;21.09;35.16
56689;BME280;42565;53.342;-1.534;2022-08-30T09:17:28;100081.21;;;20.60;35.23
56689;BME280;42565;53.342;-1.534;2022-08-30T09:19:57;100077.67;;;19.67;35.59
56689;BME280;42565;53.342;-1.534;2022-08-30T09:22:31;100079.77;;;20.04;34.27
56689;BME280;42565;53.342;-1.534;2022-08-30T09:25:02;100081.49;;;20.86;34.29
56689;BME280;42565;53.342;-1.534;2022-08-30T09:27:32;100084.25;;;20.86;33.94
56689;BME280;42565;53.342;-1.534;2022-08-30T09:30:05;100089.60;;;21.75;32.75
56689;BME280;42565;53.342;-1.534;2022-08-30T09:32:36;100082.24;;;21.46;32.64
56689;BME280;42565;53.342;-1.534;2022-08-30T09:35:08;100084.25;;;21.15;32.37
56689;BME280;42565;53.342;-1.534;2022-08-30T09:37:39;100082.63;;;20.51;32.72
56689;BME280;42565;53.342;-1.534;2022-08-30T09:40:15;100085.81;;;21.25;32.96
56689;BME280;42565;53.342;-1.534;2022-08-30T09:42:59;100085.73;;;21.23;32.08
56689;BME280;42565;53.342;-1.534;2022-08-30T09:45:30;100083.98;;;20.44;33.57
56689;BME280;42565;53.342;-1.534;2022-08-30T09:47:58;100086.48;;;20.81;32.93
56689;BME280;42565;53.342;-1.534;2022-08-30T09:50:26;100081.46;;;21.62;33.22
56689;BME280;42565;53.342;-1.534;2022-08-30T09:53:03;100075.28;;;21.75;31.29
56689;BME280;42565;53.342;-1.534;2022-08-30T09:55:44;100074.26;;;21.89;32.67
56689;BME280;42565;53.342;-1.534;2022-08-30T09:58:22;100071.70;;;21.58;31.34
56689;BME280;42565;53.342;-1.534;2022-08-30T10:01:00;100072.90;;;22.89;29.70
56689;BME280;42565;53.342;-1.534;2022-08-30T10:03:34;100072.81;;;22.36;30.85
56689;BME280;42565;53.342;-1.534;2022-08-30T10:06:09;100072.92;;;22.51;30.85
56689;BME280;42565;53.342;-1.534;2022-08-30T10:08:52;100081.79;;;22.19;32.09
56689;BME280;42565;53.342;-1.534;2022-08-30T10:11:27;100076.52;;;22.10;30.95
56689;BME280;42565;53.342;-1.534;2022-08-30T10:14:13;100079.60;;;23.15;30.08
56689;BME280;42565;53.342;-1.534;2022-08-30T10:16:51;100077.83;;;22.53;30.82
56689;BME280;42565;53.342;-1.534;2022-08-30T10:19:30;100082.78;;;22.97;30.38
56689;BME280;42565;53.342;-1.534;2022-08-30T10:22:09;100082.99;;;23.63;29.23
56689;BME280;42565;53.342;-1.534;2022-08-30T10:24:41;100082.15;;;23.24;30.41
56689;BME280;42565;53.342;-1.534;2022-08-30T10:27:13;100074.24;;;22.50;29.98
56689;BME280;42565;53.342;-1.534;2022-08-30T10:29:45;100074.66;;;23.54;30.16
56689;BME280;42565;53.342;-1.534;2022-08-30T10:32:19;100074.39;;;22.83;28.76
56689;BME280;42565;53.342;-1.534;2022-08-30T10:34:54;100075.12;;;23.70;29.35
56689;BME280;42565;53.342;-1.534;2022-08-30T10:37:26;100074.19;;;22.92;29.86
56689;BME280;42565;53.342;-1.534;2022-08-30T10:39:57;100072.93;;;24.39;28.72
56689;BME280;42565;53.342;-1.534;2022-08-30T10:42:27;100072.55;;;24.23;27.57
56689;BME280;42565;53.342;-1.534;2022-08-30T10:45:01;100067.96;;;25.00;26.90
56689;BME280;42565;53.342;-1.534;2022-08-30T10:47:36;100063.97;;;24.01;27.52
56689;BME280;42565;53.342;-1.534;2022-08-30T10:50:10;100064.84;;;24.17;28.12
56689;BME280;42565;53.342;-1.534;2022-08-30T10:52:44;100062.74;;;24.08;28.32
56689;BME280;42565;53.342;-1.534;2022-08-30T10:55:17;100063.72;;;23.93;27.64
56689;BME280;42565;53.342;-1.534;2022-08-30T10:57:45;100063.53;;;24.91;27.47
56689;BME280;42565;53.342;-1.534;2022-08-30T11:00:15;100060.88;;;23.83;28.71
56689;BME280;42565;53.342;-1.534;2022-08-30T11:04:09;100067.48;;;24.31;28.76
56689;BME280;42565;53.342;-1.534;2022-08-30T11:06:48;100063.92;;;23.21;29.86
56689;BME280;42565;53.342;-1.534;2022-08-30T11:09:30;100063.77;;;22.28;30.28
56689;BME280;42565;53.342;-1.534;2022-08-30T11:12:18;100061.20;;;23.42;30.18
56689;BME280;42565;53.342;-1.534;2022-08-30T11:14:48;100057.87;;;23.47;29.37
56689;BME280;42565;53.342;-1.534;2022-08-30T11:17:25;100059.51;;;22.73;28.95
56689;BME280;42565;53.342;-1.534;2022-08-30T11:19:54;100056.73;;;24.45;28.23
56689;BME280;42565;53.342;-1.534;2022-08-30T11:22:26;100062.44;;;24.93;27.10
56689;BME280;42565;53.342;-1.534;2022-08-30T11:25:12;100062.21;;;24.77;27.36
56689;BME280;42565;53.342;-1.534;2022-08-30T11:27:43;100060.73;;;24.73;27.55
56689;BME280;42565;53.342;-1.534;2022-08-30T11:31:31;100054.79;;;23.82;26.77
56689;BME280;42565;53.342;-1.534;2022-08-30T11:33:58;100053.60;;;23.75;28.69
56689;BME280;42565;53.342;-1.534;2022-08-30T11:37:01;100049.42;;;23.78;28.55
56689;BME280;42565;53.342;-1.534;2022-08-30T11:39:53;100048.11;;;23.44;28.92
56689;BME280;42565;53.342;-1.534;2022-08-30T11:42:28;100049.18;;;23.49;27.99
56689;BME280;42565;53.342;-1.534;2022-08-30T11:45:43;100046.95;;;23.78;27.95
56689;BME280;42565;53.342;-1.534;2022-08-30T11:48:41;100053.09;;;22.96;29.11
56689;BME280;42565;53.342;-1.534;2022-08-30T11:51:53;100050.54;;;22.95;29.25
56689;BME280;42565;53.342;-1.534;2022-08-30T11:54:33;100050.65;;;23.80;28.46
56689;BME280;42565;53.342;-1.534;2022-08-30T11:57:10;100050.85;;;22.83;28.66
56689;BME280;42565;53.342;-1.534;2022-08-30T11:59:48;100051.03;;;23.47;30.22
56689;BME280;42565;53.342;-1.534;2022-08-30T12:02:54;100052.64;;;22.76;29.75
56689;BME280;42565;53.342;-1.534;2022-08-30T12:05:57;100051.85;;;23.86;29.16
56689;BME280;42565;53.342;-1.534;2022-08-30T12:08:57;100045.86;;;24.27;27.68
56689;BME280;42565;53.342;-1.534;2022-08-30T12:11:58;100048.28;;;25.15;28.44
56689;BME280;42565;53.342;-1.534;2022-08-30T12:14:39;100051.13;;;25.03;27.96
56689;BME280;42565;53.342;-1.534;2022-08-30T12:17:18;100049.76;;;25.47;26.54
56689;BME280;42565;53.342;-1.534;2022-08-30T12:19:47;100047.87;;;25.86;26.56
56689;BME280;42565;53.342;-1.534;2022-08-30T12:22:16;100050.79;;;25.12;26.56
56689;BME280;42565;53.342;-1.534;2022-08-30T12:24:47;100046.33;;;25.53;26.56
56689;BME280;42565;53.342;-1.534;2022-08-30T12:27:27;100051.69;;;24.30;26.86
56689;BME280;42565;53.342;-1.534;2022-08-30T12:29:56;100050.92;;;24.70;27.34
56689;BME280;42565;53.342;-1.534;2022-08-30T12:32:24;100050.43;;;24.84;27.69
56689;BME280;42565;53.342;-1.534;2022-08-30T12:34:54;100047.57;;;25.38;27.41
56689;BME280;42565;53.342;-1.534;2022-08-30T12:37:24;100049.26;;;24.59;28.02
56689;BME280;42565;53.342;-1.534;2022-08-30T12:40:03;100051.77;;;24.66;26.85
56689;BME280;42565;53.342;-1.534;2022-08-30T12:42:34;100048.75;;;24.41;26.31
56689;BME280;42565;53.342;-1.534;2022-08-30T12:45:06;100051.74;;;24.34;28.58
56689;BME280;42565;53.342;-1.534;2022-08-30T12:47:40;100051.98;;;24.10;28.45
56689;BME280;42565;53.342;-1.534;2022-08-30T12:50:09;100049.44;;;23.51;29.00
56689;BME280;42565;53.342;-1.534;2022-08-30T12:52:41;100052.98;;;23.34;28.16
56689;BME280;42565;53.342;-1.534;2022-08-30T12:55:14;100051.17;;;23.92;28.67
56689;BME280;42565;53.342;-1.534;2022-08-30T12:57:52;100049.90;;;23.38;29.12
56689;BME280;42565;53.342;-1.534;2022-08-30T13:00:25;100053.75;;;23.73;27.84